Time;durP1;ratioP1;P1;durP2;ratioP2;P2;SDS_P1;SDS_P2;PMS_P1;PMS_P2;Temp;Humidity;BMP_temperature;BMP_pressure;BME280_temperature;BME280_humidity;BME280_pressure;Samples;Min_cycle;Max_cycle;Signal;HPM_P1;HPM_P2
2021/07/16 00:00:36;;;;;;;34.55;17.65;;;18.60;99.90;;;;;;4871992;29;20026;-86
2021/07/16 00:03:02;;;;;;;35.38;20.95;;;18.60;99.90;;;;;;4856707;29;20124;-85
2021/07/16 00:05:27;;;;;;;61.47;25.38;;;18.60;99.90;;;;;;4856206;29;20112;-85
2021/07/16 00:07:53;;;;;;;46.35;22.48;;;18.60;99.90;;;;;;4856308;29;20034;-85
2021/07/16 00:10:19;;;;;;;42.05;22.55;;;18.60;99.90;;;;;;4871805;29;20457;-86
2021/07/16 00:12:46;;;;;;;37.20;16.00;;;18.60;99.90;;;;;;4855578;29;20037;-86
2021/07/16 00:15:13;;;;;;;35.97;19.10;;;18.60;99.90;;;;;;4856289;29;20101;-85
2021/07/16 00:17:38;;;;;;;40.30;19.77;;;18.50;99.90;;;;;;4855760;29;20116;-85
2021/07/16 00:20:04;;;;;;;42.47;20.42;;;18.50;99.90;;;;;;4855798;29;20734;-85
2021/07/16 00:22:30;;;;;;;38.40;19.45;;;18.60;99.90;;;;;;4855971;29;20105;-85
2021/07/16 00:24:55;;;;;;;53.00;25.58;;;18.50;99.90;;;;;;4822355;29;20034;-86
2021/07/16 00:27:21;;;;;;;34.08;19.67;;;18.50;99.90;;;;;;4846486;29;20504;-85
2021/07/16 00:29:47;;;;;;;41.08;23.25;;;18.50;99.90;;;;;;4855707;29;20799;-86
2021/07/16 00:32:12;;;;;;;38.45;20.35;;;18.50;99.90;;;;;;4855329;29;20064;-86
2021/07/16 00:34:38;;;;;;;34.53;16.00;;;18.50;99.90;;;;;;4855984;29;20581;-86
2021/07/16 00:37:04;;;;;;;32.25;17.60;;;18.50;99.90;;;;;;4853324;29;20040;-85
2021/07/16 00:39:29;;;;;;;39.03;17.33;;;18.50;99.90;;;;;;4855691;29;20037;-86
2021/07/16 00:41:55;;;;;;;35.45;16.85;;;18.50;99.90;;;;;;4855699;29;20042;-86
2021/07/16 00:44:21;;;;;;;34.53;14.90;;;18.40;99.90;;;;;;4855666;29;20033;-86
2021/07/16 00:46:47;;;;;;;41.10;18.42;;;18.40;99.90;;;;;;4855170;29;20041;-86
2021/07/16 00:49:12;;;;;;;28.08;15.27;;;18.40;99.90;;;;;;4855207;29;20561;-85
2021/07/16 00:51:39;;;;;;;38.92;17.77;;;18.40;99.90;;;;;;4855071;29;20060;-86
2021/07/16 00:54:04;;;;;;;36.90;19.75;;;18.40;99.90;;;;;;4855282;29;20386;-86
2021/07/16 00:56:30;;;;;;;33.10;18.50;;;18.40;99.90;;;;;;4855488;29;20044;-85
2021/07/16 00:58:55;;;;;;;42.70;17.77;;;18.40;99.90;;;;;;4855556;29;20041;-86
2021/07/16 01:01:21;;;;;;;37.50;15.77;;;18.40;99.90;;;;;;4855449;29;20025;-85
2021/07/16 01:03:51;;;;;;;33.03;16.92;;;18.40;99.90;;;;;;4855254;29;20041;-86
2021/07/16 01:06:16;;;;;;;30.13;16.90;;;18.30;99.90;;;;;;4854449;29;20034;-86
2021/07/16 01:08:42;;;;;;;40.08;21.02;;;18.40;99.90;;;;;;4848805;29;20054;-85
2021/07/16 01:11:07;;;;;;;32.38;15.07;;;18.30;99.90;;;;;;4836741;29;20034;-85
2021/07/16 01:13:33;;;;;;;40.28;16.65;;;18.30;99.90;;;;;;4855088;29;20620;-85
2021/07/16 01:15:58;;;;;;;56.35;22.90;;;18.30;99.90;;;;;;4854863;29;20030;-85
2021/07/16 01:18:25;;;;;;;36.75;17.38;;;18.30;99.90;;;;;;4836830;29;20041;-85
2021/07/16 01:20:50;;;;;;;37.50;19.65;;;18.20;99.90;;;;;;4840005;29;20029;-85
2021/07/16 01:23:23;;;;;;;40.78;19.48;;;18.20;99.90;;;;;;4855020;29;20461;-85
2021/07/16 01:25:49;;;;;;;35.05;17.80;;;18.20;99.90;;;;;;4853833;29;20030;-85
2021/07/16 01:28:15;;;;;;;43.80;20.25;;;18.20;99.90;;;;;;4854528;29;20549;-86
2021/07/16 01:30:40;;;;;;;38.25;19.27;;;18.20;99.90;;;;;;4849915;29;20038;-86
2021/07/16 01:33:06;;;;;;;35.55;16.48;;;18.20;99.90;;;;;;4870245;29;20068;-85
2021/07/16 01:35:32;;;;;;;44.95;20.73;;;18.20;99.90;;;;;;4854575;29;20061;-86
2021/07/16 01:37:57;;;;;;;31.80;15.35;;;18.20;99.90;;;;;;4854335;29;20056;-85
2021/07/16 01:40:23;;;;;;;38.22;17.33;;;18.10;99.90;;;;;;4854341;29;20453;-86
2021/07/16 01:42:51;;;;;;;36.70;15.98;;;18.10;99.90;;;;;;4854023;29;20029;-86
2021/07/16 01:45:21;;;;;;;43.17;14.82;;;18.10;99.90;;;;;;4854465;29;20090;-86
2021/07/16 01:47:58;;;;;;;42.13;17.23;;;18.00;99.90;;;;;;4854273;29;20048;-85
2021/07/16 01:50:24;;;;;;;31.38;15.20;;;18.10;99.90;;;;;;4854389;29;20044;-85
2021/07/16 01:52:49;;;;;;;36.50;18.55;;;18.00;99.90;;;;;;4854356;29;20425;-85
2021/07/16 01:55:19;;;;;;;29.60;14.43;;;18.00;99.90;;;;;;4854606;29;20504;-85
2021/07/16 01:57:55;;;;;;;37.30;18.17;;;18.10;99.90;;;;;;4867167;29;20036;-85
2021/07/16 02:00:26;;;;;;;32.67;14.05;;;18.10;99.90;;;;;;4853691;29;20063;-85
2021/07/16 02:02:56;;;;;;;44.15;18.55;;;18.00;99.90;;;;;;4854339;29;20494;-87
2021/07/16 02:05:22;;;;;;;38.90;17.60;;;18.00;99.90;;;;;;4839417;29;20166;-85
2021/07/16 02:07:50;;;;;;;30.23;13.88;;;18.00;99.90;;;;;;4841301;29;20572;-86
2021/07/16 02:10:16;;;;;;;33.13;14.70;;;18.10;99.90;;;;;;4839029;29;20026;-85
2021/07/16 02:12:42;;;;;;;24.70;14.63;;;18.00;99.90;;;;;;4854109;29;20501;-85
2021/07/16 02:15:10;;;;;;;31.17;15.55;;;18.00;99.90;;;;;;4853673;29;20033;-85
2021/07/16 02:17:36;;;;;;;36.33;14.98;;;18.00;99.90;;;;;;4848068;29;20033;-85
2021/07/16 02:20:01;;;;;;;33.78;18.00;;;18.00;99.90;;;;;;4853567;29;20033;-85
2021/07/16 02:22:27;;;;;;;30.73;16.50;;;18.00;99.90;;;;;;4853858;29;20041;-85
2021/07/16 02:24:52;;;;;;;54.33;19.52;;;18.00;99.90;;;;;;4854087;29;20041;-85
2021/07/16 02:27:18;;;;;;;32.35;14.45;;;18.00;99.90;;;;;;4853790;29;20052;-86
2021/07/16 02:29:43;;;;;;;31.25;14.18;;;18.00;99.90;;;;;;4853857;29;20140;-85
2021/07/16 02:32:09;;;;;;;30.63;13.27;;;18.00;99.90;;;;;;4853476;29;20060;-86
2021/07/16 02:34:34;;;;;;;30.70;11.23;;;18.00;99.90;;;;;;4853571;29;20667;-85
2021/07/16 02:37:00;;;;;;;31.35;13.63;;;17.90;99.90;;;;;;4847561;29;20116;-85
2021/07/16 02:39:25;;;;;;;24.27;12.85;;;17.90;99.90;;;;;;4853895;29;20113;-85
2021/07/16 02:41:51;;;;;;;22.20;12.82;;;17.90;99.90;;;;;;4853673;29;20090;-86
2021/07/16 02:44:16;;;;;;;28.75;13.90;;;17.90;99.90;;;;;;4869563;29;20110;-86
2021/07/16 02:46:42;;;;;;;29.42;13.48;;;17.90;99.90;;;;;;4845238;29;20486;-85
2021/07/16 02:49:07;;;;;;;39.67;13.07;;;17.90;99.90;;;;;;4819858;29;20033;-85
2021/07/16 02:51:36;;;;;;;30.50;12.23;;;17.90;99.90;;;;;;4841212;29;20038;-85
2021/07/16 02:54:01;;;;;;;23.63;11.95;;;17.90;99.90;;;;;;4853940;29;20033;-86
2021/07/16 02:56:27;;;;;;;25.02;11.15;;;17.90;99.90;;;;;;4853807;29;20109;-85
2021/07/16 02:58:52;;;;;;;29.17;12.80;;;17.90;99.90;;;;;;4866077;29;20637;-85
2021/07/16 03:01:18;;;;;;;23.17;11.70;;;17.90;99.90;;;;;;4853742;29;20069;-86
2021/07/16 03:03:43;;;;;;;24.40;10.98;;;17.80;99.90;;;;;;4854036;29;20033;-85
2021/07/16 03:06:09;;;;;;;25.77;12.95;;;17.80;99.90;;;;;;4841328;29;20038;-85
2021/07/16 03:08:35;;;;;;;21.88;11.60;;;17.80;99.90;;;;;;4838435;29;20664;-85
2021/07/16 03:11:01;;;;;;;24.63;11.75;;;17.80;99.90;;;;;;4853747;29;20054;-86
2021/07/16 03:13:26;;;;;;;31.60;14.23;;;17.80;99.90;;;;;;4839680;29;20058;-85
2021/07/16 03:15:52;;;;;;;26.25;11.43;;;17.80;99.90;;;;;;4835208;29;20035;-85
2021/07/16 03:18:20;;;;;;;29.17;10.73;;;17.80;99.90;;;;;;4835998;29;20780;-85
2021/07/16 03:20:46;;;;;;;27.17;12.98;;;17.80;99.90;;;;;;4853757;29;20029;-85
2021/07/16 03:23:12;;;;;;;27.90;11.05;;;17.80;99.90;;;;;;4853369;29;20040;-85
2021/07/16 03:25:38;;;;;;;25.17;11.48;;;17.80;99.90;;;;;;4868529;29;20121;-85
2021/07/16 03:28:04;;;;;;;28.85;12.00;;;17.80;99.90;;;;;;4853015;29;20787;-85
2021/07/16 03:30:30;;;;;;;28.80;11.88;;;17.80;99.90;;;;;;4868350;29;20062;-85
2021/07/16 03:32:56;;;;;;;29.02;13.32;;;17.80;99.90;;;;;;4855932;29;20025;-86
2021/07/16 03:35:21;;;;;;;29.77;13.02;;;17.80;99.90;;;;;;4841906;29;20042;-85
2021/07/16 03:37:47;;;;;;;24.27;11.98;;;17.80;99.90;;;;;;4838128;29;20065;-85
2021/07/16 03:40:15;;;;;;;32.60;13.43;;;17.80;99.90;;;;;;4838447;29;20130;-85
2021/07/16 03:42:41;;;;;;;26.58;13.70;;;17.80;99.90;;;;;;4838306;29;20037;-85
2021/07/16 03:45:07;;;;;;;32.65;16.17;;;17.80;99.90;;;;;;4838378;29;20033;-86
2021/07/16 03:47:33;;;;;;;33.63;14.30;;;17.70;99.90;;;;;;4837613;29;20033;-85
2021/07/16 03:49:58;;;;;;;33.67;13.30;;;17.80;99.90;;;;;;4852437;29;20033;-85
2021/07/16 03:52:24;;;;;;;44.63;18.65;;;17.70;99.90;;;;;;4856501;29;20498;-85
2021/07/16 03:54:50;;;;;;;30.92;14.18;;;17.70;99.90;;;;;;4856449;29;20165;-86
2021/07/16 03:57:16;;;;;;;27.58;12.82;;;17.70;99.90;;;;;;4856195;29;20112;-85
2021/07/16 03:59:41;;;;;;;33.60;16.20;;;17.70;99.90;;;;;;4856264;29;20057;-85
2021/07/16 04:04:35;;;;;;;29.83;14.30;;;17.70;99.90;;;;;;4834830;29;20057;-86
2021/07/16 04:07:00;;;;;;;33.13;12.48;;;17.70;99.90;;;;;;4822551;29;20474;-85
2021/07/16 04:09:26;;;;;;;25.50;16.02;;;17.70;99.90;;;;;;4844218;29;20046;-86
2021/07/16 04:12:11;;;;;;;30.70;15.23;;;17.70;99.90;;;;;;4838138;29;20458;-85
2021/07/16 04:14:38;;;;;;;32.67;14.05;;;17.70;99.90;;;;;;4849852;29;20040;-86
2021/07/16 04:17:06;;;;;;;29.92;13.10;;;17.70;99.90;;;;;;4834434;29;20539;-86
2021/07/16 04:19:31;;;;;;;37.25;12.65;;;17.70;99.90;;;;;;4834515;29;20045;-86
2021/07/16 04:21:57;;;;;;;30.38;12.75;;;17.70;99.90;;;;;;4834489;29;20030;-85
2021/07/16 04:24:22;;;;;;;36.20;15.57;;;17.70;99.90;;;;;;4834324;29;20095;-85
2021/07/16 04:26:48;;;;;;;29.15;13.02;;;17.70;99.90;;;;;;4834302;29;20045;-85
2021/07/16 04:29:14;;;;;;;29.17;12.50;;;17.60;99.90;;;;;;4833912;29;20038;-86
2021/07/16 04:31:39;;;;;;;39.03;15.70;;;17.60;99.90;;;;;;4834305;29;20049;-85
2021/07/16 04:34:05;;;;;;;29.33;13.20;;;17.60;99.90;;;;;;4833750;29;20122;-85
2021/07/16 04:36:30;;;;;;;27.38;14.77;;;17.60;99.90;;;;;;4829344;29;20391;-85
2021/07/16 04:38:56;;;;;;;21.98;11.88;;;17.70;99.90;;;;;;4831045;29;20037;-85
2021/07/16 04:41:21;;;;;;;25.80;11.48;;;17.60;99.90;;;;;;4830738;29;20038;-85
2021/07/16 04:43:47;;;;;;;22.45;11.00;;;17.60;99.90;;;;;;4830168;29;20062;-85
2021/07/16 04:46:12;;;;;;;25.35;11.23;;;17.60;99.90;;;;;;4831295;29;20047;-85
2021/07/16 04:48:38;;;;;;;23.83;12.32;;;17.60;99.90;;;;;;4833640;29;20046;-85
2021/07/16 04:51:03;;;;;;;24.45;11.82;;;17.60;99.90;;;;;;4834051;29;20035;-85
2021/07/16 04:53:29;;;;;;;27.08;12.63;;;17.60;99.90;;;;;;4825783;29;20039;-85
2021/07/16 04:55:54;;;;;;;23.98;13.32;;;17.60;99.90;;;;;;4803709;29;20104;-85
2021/07/16 04:58:20;;;;;;;25.13;12.85;;;17.60;99.90;;;;;;4799699;29;20526;-85
2021/07/16 05:00:45;;;;;;;27.33;13.38;;;17.60;99.90;;;;;;4803414;29;20035;-85
2021/07/16 05:03:11;;;;;;;19.30;11.05;;;17.60;99.90;;;;;;4833648;29;20828;-85
2021/07/16 05:05:36;;;;;;;29.42;12.10;;;17.60;99.90;;;;;;4833942;29;20030;-85
2021/07/16 05:08:02;;;;;;;30.23;11.15;;;17.60;99.90;;;;;;4830377;29;20076;-85
2021/07/16 05:10:27;;;;;;;30.50;12.23;;;17.60;99.90;;;;;;4833724;29;20121;-85
2021/07/16 05:12:53;;;;;;;26.88;10.98;;;17.60;99.90;;;;;;4832740;29;20031;-86
2021/07/16 05:15:18;;;;;;;23.70;11.40;;;17.60;99.90;;;;;;4815344;29;20207;-85
2021/07/16 05:17:44;;;;;;;28.20;11.73;;;17.60;99.90;;;;;;4815085;29;20050;-85
2021/07/16 05:20:10;;;;;;;26.33;11.52;;;17.60;99.90;;;;;;4790376;29;20687;-85
2021/07/16 05:22:35;;;;;;;34.20;13.25;;;17.60;99.90;;;;;;4800352;29;20533;-85
2021/07/16 05:25:01;;;;;;;29.10;12.52;;;17.60;99.90;;;;;;4815152;29;20038;-86
2021/07/16 05:27:27;;;;;;;25.63;12.27;;;17.60;99.90;;;;;;4833339;29;20042;-85
2021/07/16 05:29:52;;;;;;;29.60;12.13;;;17.60;99.90;;;;;;4826542;29;20038;-85
2021/07/16 05:32:18;;;;;;;26.50;10.48;;;17.60;99.90;;;;;;4802911;29;20483;-86
2021/07/16 05:34:43;;;;;;;28.15;12.45;;;17.60;99.90;;;;;;4790901;29;20039;-86
2021/07/16 05:37:09;;;;;;;35.47;17.00;;;17.60;99.90;;;;;;4799920;29;20053;-85
2021/07/16 05:39:34;;;;;;;24.23;10.85;;;17.60;99.90;;;;;;4799943;29;20027;-85
2021/07/16 05:42:03;;;;;;;21.85;12.45;;;17.60;99.90;;;;;;4803704;29;20486;-86
2021/07/16 05:44:30;;;;;;;22.45;11.00;;;17.60;99.90;;;;;;4803750;29;20066;-86
2021/07/16 05:46:55;;;;;;;24.77;13.25;;;17.60;99.90;;;;;;4818132;29;20499;-86
2021/07/16 05:49:20;;;;;;;23.15;10.93;;;17.50;99.90;;;;;;4817731;29;20034;-86
2021/07/16 05:51:46;;;;;;;30.52;13.90;;;17.50;99.90;;;;;;4833009;29;20034;-85
2021/07/16 05:54:11;;;;;;;20.25;12.40;;;17.50;99.90;;;;;;4817223;29;20077;-86
2021/07/16 05:56:40;;;;;;;25.30;12.75;;;17.50;99.90;;;;;;4832881;29;20109;-85
2021/07/16 05:59:09;;;;;;;23.30;13.30;;;17.50;99.90;;;;;;4830757;29;20381;-86
2021/07/16 06:01:34;;;;;;;27.05;12.18;;;17.50;99.90;;;;;;4820525;29;20034;-85
2021/07/16 06:04:03;;;;;;;26.58;12.45;;;17.50;99.90;;;;;;4817161;29;20056;-86
2021/07/16 06:06:29;;;;;;;30.17;12.93;;;17.50;99.90;;;;;;4817606;29;20379;-86
2021/07/16 06:08:55;;;;;;;27.77;15.13;;;17.50;99.90;;;;;;4832298;29;20087;-86
2021/07/16 06:11:20;;;;;;;34.25;11.93;;;17.50;99.90;;;;;;4799581;29;20588;-86
2021/07/16 06:13:46;;;;;;;33.30;12.55;;;17.40;99.90;;;;;;4815214;29;20394;-86
2021/07/16 06:16:11;;;;;;;23.13;10.50;;;17.40;99.90;;;;;;4814456;29;20167;-86
2021/07/16 06:18:37;;;;;;;29.20;12.48;;;17.40;99.90;;;;;;4814166;29;20439;-86
2021/07/16 06:21:06;;;;;;;30.85;12.18;;;17.40;99.90;;;;;;4814517;29;20639;-85
2021/07/16 06:23:31;;;;;;;29.35;13.35;;;17.40;99.90;;;;;;4828898;29;20038;-86
2021/07/16 06:25:57;;;;;;;26.08;12.45;;;17.40;99.90;;;;;;4820973;29;20031;-86
2021/07/16 06:28:22;;;;;;;37.00;12.73;;;17.40;99.90;;;;;;4798983;29;20487;-87
2021/07/16 06:30:48;;;;;;;30.85;12.95;;;17.40;99.90;;;;;;4799657;29;20039;-86
2021/07/16 06:33:14;;;;;;;25.75;11.95;;;17.40;99.90;;;;;;4800159;29;20035;-85
2021/07/16 06:35:39;;;;;;;27.95;12.38;;;17.40;99.90;;;;;;4833238;29;20037;-86
2021/07/16 06:38:05;;;;;;;27.00;12.07;;;17.50;99.90;;;;;;4832410;29;20066;-86
2021/07/16 06:40:30;;;;;;;24.08;10.93;;;17.50;99.90;;;;;;4832714;29;20050;-85
2021/07/16 06:42:56;;;;;;;24.67;11.82;;;17.50;99.90;;;;;;4832417;29;20030;-85
2021/07/16 06:45:21;;;;;;;38.15;12.48;;;17.50;99.90;;;;;;4799798;29;20035;-86
2021/07/16 06:47:47;;;;;;;26.70;12.07;;;17.60;99.90;;;;;;4799424;29;20550;-85
2021/07/16 06:50:12;;;;;;;29.55;11.95;;;17.60;99.90;;;;;;4799310;29;20038;-86
2021/07/16 06:52:38;;;;;;;30.58;9.80;;;17.60;99.90;;;;;;4804013;29;20147;-86
2021/07/16 06:55:04;;;;;;;28.83;10.15;;;17.60;99.90;;;;;;4802643;29;20034;-86
2021/07/16 06:57:30;;;;;;;21.08;10.38;;;17.60;99.90;;;;;;4802214;29;20405;-85
2021/07/16 06:59:55;;;;;;;34.67;13.13;;;17.60;99.90;;;;;;4796217;29;20038;-86
2021/07/16 07:02:21;;;;;;;23.85;9.50;;;17.60;99.90;;;;;;4799108;29;20038;-86
2021/07/16 07:04:46;;;;;;;25.42;10.55;;;17.70;99.90;;;;;;4799562;29;20042;-86
2021/07/16 07:07:12;;;;;;;30.30;10.63;;;17.70;99.90;;;;;;4801307;29;20038;-86
2021/07/16 07:09:37;;;;;;;30.92;13.23;;;17.70;99.90;;;;;;4805660;29;20079;-85
2021/07/16 07:12:03;;;;;;;26.70;9.45;;;17.70;99.90;;;;;;4805759;29;20022;-86
2021/07/16 07:14:29;;;;;;;27.88;10.05;;;17.70;99.90;;;;;;4803507;29;20031;-85
2021/07/16 07:16:54;;;;;;;26.20;10.40;;;17.70;99.90;;;;;;4790678;29;20034;-85
2021/07/16 07:19:20;;;;;;;26.35;9.20;;;17.70;99.90;;;;;;4801885;29;20042;-86
2021/07/16 07:21:45;;;;;;;26.55;10.63;;;17.70;99.90;;;;;;4814922;29;20502;-86
2021/07/16 07:24:11;;;;;;;26.67;10.45;;;17.70;99.90;;;;;;4805219;29;20133;-86
2021/07/16 07:26:36;;;;;;;24.15;9.57;;;17.70;99.90;;;;;;4804934;29;20035;-86
2021/07/16 07:29:02;;;;;;;26.38;9.32;;;17.70;99.90;;;;;;4787179;29;20121;-86
2021/07/16 07:31:27;;;;;;;40.17;10.40;;;17.70;99.90;;;;;;4818884;29;20094;-85
2021/07/16 07:33:54;;;;;;;25.23;11.27;;;17.70;99.90;;;;;;4804847;29;20066;-86
2021/07/16 07:36:20;;;;;;;29.65;10.32;;;17.70;99.90;;;;;;4805149;29;20058;-85
2021/07/16 07:38:46;;;;;;;26.55;10.55;;;17.70;99.90;;;;;;4812758;29;20042;-85
2021/07/16 07:41:11;;;;;;;24.40;9.43;;;17.80;99.90;;;;;;4802111;29;20068;-86
2021/07/16 07:43:37;;;;;;;34.55;11.98;;;17.80;99.90;;;;;;4814746;29;20544;-86
2021/07/16 07:46:02;;;;;;;31.77;10.60;;;17.80;99.90;;;;;;4804380;29;20926;-85
2021/07/16 07:48:28;;;;;;;32.20;11.80;;;17.80;99.90;;;;;;4819459;29;20041;-86
2021/07/16 07:50:57;;;;;;;20.02;10.48;;;17.80;99.90;;;;;;4835059;29;20042;-85
2021/07/16 07:53:23;;;;;;;28.95;11.35;;;17.80;99.90;;;;;;4834415;29;20026;-86
2021/07/16 07:55:48;;;;;;;29.27;13.02;;;17.80;99.90;;;;;;4835212;29;20476;-87
2021/07/16 07:58:14;;;;;;;24.75;10.55;;;17.90;99.90;;;;;;4834637;29;20045;-85
2021/07/16 08:00:39;;;;;;;30.92;9.98;;;17.90;99.90;;;;;;4834916;29;20059;-86
2021/07/16 08:03:05;;;;;;;28.42;8.90;;;17.90;99.90;;;;;;4828874;29;20648;-85
2021/07/16 08:05:31;;;;;;;26.70;9.95;;;17.90;99.90;;;;;;4816952;29;20133;-87
2021/07/16 08:07:56;;;;;;;26.13;9.50;;;17.90;99.90;;;;;;4834390;29;20046;-86
2021/07/16 08:10:22;;;;;;;29.83;10.57;;;17.90;99.90;;;;;;4834225;29;20406;-86
2021/07/16 08:12:48;;;;;;;28.70;10.18;;;17.90;99.90;;;;;;4834255;29;20061;-86
2021/07/16 08:15:14;;;;;;;26.08;10.15;;;17.90;99.90;;;;;;4834711;29;20062;-86
2021/07/16 08:17:39;;;;;;;30.98;10.23;;;17.90;99.90;;;;;;4833944;29;20176;-86
2021/07/16 08:20:08;;;;;;;28.85;9.77;;;18.00;99.90;;;;;;4827257;29;20035;-86
2021/07/16 08:22:35;;;;;;;20.08;9.40;;;17.90;99.90;;;;;;4833583;29;20665;-85
2021/07/16 08:25:00;;;;;;;26.55;9.15;;;18.00;99.90;;;;;;4821358;29;20043;-85
2021/07/16 08:27:27;;;;;;;26.17;9.40;;;18.00;99.90;;;;;;4831080;29;20478;-85
2021/07/16 08:29:52;;;;;;;22.65;10.02;;;18.00;99.90;;;;;;4831363;29;20038;-86
2021/07/16 08:32:18;;;;;;;23.65;7.53;;;18.10;99.90;;;;;;4831218;29;20453;-86
2021/07/16 08:34:43;;;;;;;29.48;8.43;;;18.10;99.90;;;;;;4831530;29;20038;-86
2021/07/16 08:37:09;;;;;;;19.58;8.20;;;18.10;99.90;;;;;;4831271;29;20121;-86
2021/07/16 08:39:34;;;;;;;27.15;8.68;;;18.10;99.90;;;;;;4830393;29;20039;-86
2021/07/16 08:42:01;;;;;;;31.27;8.70;;;18.10;99.90;;;;;;4828612;29;20125;-86
2021/07/16 08:44:27;;;;;;;22.42;7.75;;;18.10;99.90;;;;;;4818786;29;20038;-86
2021/07/16 08:46:52;;;;;;;33.53;8.32;;;18.10;99.90;;;;;;4833119;29;20114;-86
2021/07/16 08:49:18;;;;;;;20.58;7.28;;;18.10;99.90;;;;;;4818506;29;20034;-86
2021/07/16 08:51:43;;;;;;;27.25;8.48;;;18.10;99.90;;;;;;4818702;29;20037;-86
2021/07/16 08:54:13;;;;;;;36.05;11.07;;;18.10;99.90;;;;;;4818861;29;20148;-86
2021/07/16 08:56:39;;;;;;;17.15;7.97;;;18.10;99.90;;;;;;4818505;29;20033;-85
2021/07/16 08:59:08;;;;;;;29.02;7.97;;;18.10;99.70;;;;;;4833335;29;20035;-85
2021/07/16 09:01:34;;;;;;;25.13;8.70;;;18.10;99.90;;;;;;4818401;29;20128;-86
2021/07/16 09:04:07;;;;;;;22.40;8.48;;;18.20;99.90;;;;;;4818042;29;20607;-86
2021/07/16 09:06:41;;;;;;;21.95;8.75;;;18.20;99.90;;;;;;4833197;29;20035;-86
2021/07/16 09:09:07;;;;;;;24.77;8.48;;;18.30;99.90;;;;;;4848516;29;20060;-86
2021/07/16 09:11:44;;;;;;;27.52;8.80;;;18.30;99.90;;;;;;4833864;29;20570;-86
2021/07/16 09:14:19;;;;;;;37.28;9.38;;;18.30;99.90;;;;;;4832404;29;20070;-85
2021/07/16 09:17:05;;;;;;;29.52;8.00;;;18.40;99.50;;;;;;4848483;29;20041;-86
2021/07/16 09:19:33;;;;;;;24.55;7.88;;;18.40;99.60;;;;;;4832211;29;20188;-86
2021/07/16 09:22:22;;;;;;;29.92;8.80;;;18.40;99.90;;;;;;4833448;29;20046;-85
2021/07/16 09:25:00;;;;;;;27.48;7.88;;;18.40;99.90;;;;;;4820509;29;20171;-85
2021/07/16 09:27:35;;;;;;;21.80;7.88;;;18.50;99.90;;;;;;4833398;29;20279;-85
2021/07/16 09:30:11;;;;;;;24.83;7.18;;;18.50;99.90;;;;;;4832761;29;20030;-86
2021/07/16 09:32:47;;;;;;;24.92;8.23;;;18.50;99.90;;;;;;4832754;29;20030;-86
2021/07/16 09:35:32;;;;;;;24.13;8.00;;;18.40;99.90;;;;;;4833369;29;20034;-85
2021/07/16 09:38:06;;;;;;;32.33;9.20;;;18.40;99.90;;;;;;4832458;29;20027;-86
2021/07/16 09:40:32;;;;;;;25.67;7.70;;;18.50;99.90;;;;;;4832960;29;20034;-86
2021/07/16 09:43:13;;;;;;;26.92;8.55;;;18.50;99.90;;;;;;4848330;29;20034;-86
2021/07/16 09:45:57;;;;;;;23.67;9.47;;;18.50;99.90;;;;;;4832156;29;20033;-86
2021/07/16 09:48:34;;;;;;;22.23;7.82;;;18.50;99.90;;;;;;4830539;29;20041;-86
2021/07/16 09:51:12;;;;;;;23.42;8.45;;;18.60;99.90;;;;;;4831672;29;20038;-86
2021/07/16 09:53:44;;;;;;;22.50;8.10;;;18.60;99.90;;;;;;4832890;29;20042;-87
2021/07/16 09:56:11;;;;;;;20.20;6.78;;;18.60;99.90;;;;;;4832392;29;20057;-85
2021/07/16 09:58:37;;;;;;;26.63;7.55;;;18.70;99.90;;;;;;4832544;29;20103;-88
2021/07/16 10:01:03;;;;;;;25.20;7.88;;;18.70;99.80;;;;;;4832867;29;20069;-86
2021/07/16 10:03:28;;;;;;;23.25;7.72;;;18.70;99.80;;;;;;4832801;29;20042;-86
2021/07/16 10:05:54;;;;;;;25.50;8.10;;;18.80;99.90;;;;;;4832539;29;20034;-85
2021/07/16 10:08:19;;;;;;;27.00;6.70;;;18.80;99.90;;;;;;4831994;29;20662;-87
2021/07/16 10:10:48;;;;;;;22.63;6.55;;;18.80;99.00;;;;;;4832712;29;20030;-86
2021/07/16 10:13:14;;;;;;;21.75;6.47;;;18.90;99.10;;;;;;4832617;29;20058;-86
2021/07/16 10:15:44;;;;;;;17.33;7.45;;;18.90;99.10;;;;;;4832823;29;20038;-86
2021/07/16 10:18:12;;;;;;;17.33;7.68;;;18.90;99.30;;;;;;4832658;29;20503;-85
2021/07/16 10:20:38;;;;;;;26.45;8.10;;;18.90;99.70;;;;;;4832365;29;20700;-85
2021/07/16 10:23:04;;;;;;;32.88;7.10;;;19.00;99.90;;;;;;4832457;29;20034;-86
2021/07/16 10:25:30;;;;;;;31.95;8.18;;;19.00;98.20;;;;;;4832122;29;20042;-85
2021/07/16 10:27:55;;;;;;;25.08;7.22;;;19.00;98.50;;;;;;4832075;29;20031;-86
2021/07/16 10:30:22;;;;;;;26.90;8.25;;;19.00;99.10;;;;;;4832323;29;20058;-86
2021/07/16 10:32:54;;;;;;;23.25;7.50;;;19.10;99.40;;;;;;4832361;29;20486;-86
2021/07/16 10:35:24;;;;;;;27.13;7.45;;;19.10;99.00;;;;;;4830824;29;20034;-86
2021/07/16 10:37:56;;;;;;;23.40;7.07;;;19.10;98.80;;;;;;4832070;29;20395;-87
2021/07/16 10:40:40;;;;;;;25.27;7.55;;;19.10;98.20;;;;;;4820287;29;20034;-86
2021/07/16 10:43:30;;;;;;;25.63;7.20;;;19.10;98.10;;;;;;4806524;29;20034;-86
2021/07/16 10:45:56;;;;;;;22.17;7.35;;;19.00;97.10;;;;;;4823631;29;20091;-85
2021/07/16 10:48:33;;;;;;;32.65;7.15;;;19.10;98.80;;;;;;4802978;29;20463;-86
2021/07/16 10:51:04;;;;;;;21.48;7.65;;;19.10;98.50;;;;;;4803199;29;20042;-86
2021/07/16 10:53:30;;;;;;;22.08;6.53;;;19.20;99.10;;;;;;4805010;29;20073;-87
2021/07/16 10:55:58;;;;;;;22.58;6.75;;;19.20;98.50;;;;;;4820429;29;20057;-86
2021/07/16 10:58:31;;;;;;;22.08;6.85;;;19.30;97.80;;;;;;4820188;29;20026;-86
2021/07/16 11:00:58;;;;;;;33.95;8.07;;;19.30;98.00;;;;;;4850639;29;20057;-87
2021/07/16 11:03:42;;;;;;;26.65;8.35;;;19.30;97.50;;;;;;4836297;29;20042;-87
2021/07/16 11:06:09;;;;;;;31.13;8.25;;;19.30;98.20;;;;;;4851748;29;20161;-86
2021/07/16 11:08:37;;;;;;;23.23;7.85;;;19.30;97.60;;;;;;4835550;29;20083;-87
2021/07/16 11:11:06;;;;;;;22.63;8.30;;;19.30;97.20;;;;;;4851558;29;20080;-87
2021/07/16 11:13:35;;;;;;;25.98;7.43;;;19.30;97.40;;;;;;4835997;29;20113;-86
2021/07/16 11:16:24;;;;;;;27.30;7.30;;;19.40;97.10;;;;;;4851277;29;20058;-86
2021/07/16 11:19:15;;;;;;;29.40;7.45;;;19.40;97.00;;;;;;4841706;29;20404;-86
2021/07/16 11:21:40;;;;;;;27.57;7.47;;;19.50;97.40;;;;;;4833789;29;20490;-87
2021/07/16 11:24:07;;;;;;;23.17;7.47;;;19.60;97.00;;;;;;4850992;29;20033;-87
2021/07/16 11:26:45;;;;;;;28.08;7.55;;;19.60;95.90;;;;;;4835947;29;20059;-87
2021/07/16 11:29:12;;;;;;;33.22;8.95;;;19.60;97.90;;;;;;4832825;29;20070;-86
2021/07/16 11:31:40;;;;;;;23.83;7.72;;;19.60;98.30;;;;;;4835458;29;20069;-85
2021/07/16 11:34:15;;;;;;;21.35;6.80;;;19.60;97.80;;;;;;4834572;29;20125;-86
2021/07/16 11:36:53;;;;;;;25.23;7.47;;;19.60;95.70;;;;;;4834205;29;20113;-86
2021/07/16 11:39:29;;;;;;;28.55;6.65;;;19.60;96.30;;;;;;4832715;29;20042;-86
2021/07/16 11:41:54;;;;;;;22.30;8.02;;;19.60;96.30;;;;;;4850505;29;20041;-86
2021/07/16 11:44:41;;;;;;;40.28;8.00;;;19.50;97.20;;;;;;4835236;29;20042;-86
2021/07/16 11:47:23;;;;;;;27.67;7.40;;;19.50;97.00;;;;;;4834483;29;20087;-86
2021/07/16 11:49:50;;;;;;;33.55;7.38;;;19.50;96.80;;;;;;4834582;29;20600;-86
2021/07/16 11:52:18;;;;;;;26.83;8.75;;;19.60;97.20;;;;;;4833796;29;20130;-86
2021/07/16 11:54:44;;;;;;;26.52;8.30;;;19.60;97.50;;;;;;4834812;29;20036;-87
2021/07/16 11:57:09;;;;;;;29.20;7.35;;;19.60;97.20;;;;;;4834499;29;20450;-86
2021/07/16 11:59:35;;;;;;;35.28;8.40;;;19.60;96.10;;;;;;4834919;29;20040;-86
2021/07/16 12:02:12;;;;;;;23.25;7.47;;;19.70;96.80;;;;;;4835103;29;20034;-87
2021/07/16 12:04:38;;;;;;;28.00;6.95;;;19.70;97.20;;;;;;4834818;29;20137;-86
2021/07/16 12:07:04;;;;;;;22.38;6.90;;;19.90;96.30;;;;;;4834660;29;20030;-87
2021/07/16 12:09:34;;;;;;;25.58;7.50;;;19.70;95.10;;;;;;4834607;29;20040;-87
2021/07/16 12:12:04;;;;;;;32.83;8.38;;;19.80;96.90;;;;;;4834310;29;20038;-87
2021/07/16 12:14:49;;;;;;;31.63;8.73;;;19.80;96.70;;;;;;4834106;29;20026;-87
2021/07/16 12:17:19;;;;;;;31.58;7.65;;;19.80;98.20;;;;;;4833225;29;20137;-87
2021/07/16 12:19:44;;;;;;;24.00;7.65;;;19.70;96.90;;;;;;4834198;29;20037;-87
2021/07/16 12:22:12;;;;;;;40.78;8.63;;;19.70;96.50;;;;;;4837494;29;20129;-87
2021/07/16 12:24:38;;;;;;;32.55;9.35;;;19.60;96.70;;;;;;4835324;29;20033;-86
2021/07/16 12:27:12;;;;;;;31.25;8.57;;;19.60;97.80;;;;;;4834701;29;20125;-87
2021/07/16 12:29:38;;;;;;;35.95;9.60;;;19.50;98.40;;;;;;4834652;29;20116;-85
2021/07/16 12:32:04;;;;;;;34.40;7.97;;;19.50;98.30;;;;;;4834727;29;20042;-84
2021/07/16 12:34:30;;;;;;;30.05;8.57;;;19.50;96.90;;;;;;4829208;29;20042;-84